sensor_id;sensor_type;location;lat;lon;timestamp;pressure;altitude;pressure_sealevel;temperature;humidity
55914;BME280;58179;48.776;9.124;2022-08-06T00:00:06;97900.97;;;20.02;96.44
55914;BME280;58179;48.776;9.124;2022-08-06T00:02:32;97898.28;;;20.02;97.73
55914;BME280;58179;48.776;9.124;2022-08-06T00:05:00;97893.91;;;19.93;92.88
55914;BME280;58179;48.776;9.124;2022-08-06T00:07:27;97893.44;;;19.91;91.13
55914;BME280;58179;48.776;9.124;2022-08-06T00:09:53;97896.59;;;19.93;94.55
55914;BME280;58179;48.776;9.124;2022-08-06T00:12:20;97893.31;;;19.96;95.84
55914;BME280;58179;48.776;9.124;2022-08-06T00:14:46;97898.69;;;19.96;96.59
55914;BME280;58179;48.776;9.124;2022-08-06T00:17:12;97905.44;;;19.93;94.08
55914;BME280;58179;48.776;9.124;2022-08-06T00:19:38;97898.81;;;19.91;94.78
55914;BME280;58179;48.776;9.124;2022-08-06T00:22:04;97900.97;;;19.89;90.15
55914;BME280;58179;48.776;9.124;2022-08-06T00:24:30;97897.09;;;19.95;94.60
55914;BME280;58179;48.776;9.124;2022-08-06T00:26:56;97899.38;;;19.88;93.90
55914;BME280;58179;48.776;9.124;2022-08-06T00:29:23;97895.72;;;19.97;95.79
55914;BME280;58179;48.776;9.124;2022-08-06T00:31:49;97903.56;;;19.94;90.88
55914;BME280;58179;48.776;9.124;2022-08-06T00:34:15;97902.47;;;19.95;92.84
55914;BME280;58179;48.776;9.124;2022-08-06T00:36:41;97901.47;;;19.91;90.35
55914;BME280;58179;48.776;9.124;2022-08-06T00:39:07;97897.19;;;19.90;91.39
55914;BME280;58179;48.776;9.124;2022-08-06T00:41:34;97905.25;;;19.90;91.10
55914;BME280;58179;48.776;9.124;2022-08-06T00:44:01;97906.06;;;19.90;91.35
55914;BME280;58179;48.776;9.124;2022-08-06T00:46:28;97904.97;;;19.91;91.74
55914;BME280;58179;48.776;9.124;2022-08-06T00:48:55;97902.56;;;19.90;90.13
55914;BME280;58179;48.776;9.124;2022-08-06T00:51:21;97902.88;;;19.88;88.97
55914;BME280;58179;48.776;9.124;2022-08-06T00:53:47;97914.19;;;19.85;87.12
55914;BME280;58179;48.776;9.124;2022-08-06T00:56:13;97917.50;;;19.82;86.57
55914;BME280;58179;48.776;9.124;2022-08-06T00:58:39;97921.28;;;19.81;83.81
55914;BME280;58179;48.776;9.124;2022-08-06T01:01:05;97922.97;;;19.77;78.79
55914;BME280;58179;48.776;9.124;2022-08-06T01:03:32;97913.00;;;19.78;84.34
55914;BME280;58179;48.776;9.124;2022-08-06T01:05:58;97923.75;;;19.78;82.52
55914;BME280;58179;48.776;9.124;2022-08-06T01:08:24;97924.34;;;19.75;79.06
55914;BME280;58179;48.776;9.124;2022-08-06T01:10:50;97923.06;;;19.72;78.78
55914;BME280;58179;48.776;9.124;2022-08-06T01:13:16;97921.78;;;19.69;73.43
55914;BME280;58179;48.776;9.124;2022-08-06T01:15:47;97930.13;;;19.68;71.01
55914;BME280;58179;48.776;9.124;2022-08-06T01:18:20;97926.03;;;19.70;71.08
55914;BME280;58179;48.776;9.124;2022-08-06T01:21:07;97926.03;;;19.70;70.22
55914;BME280;58179;48.776;9.124;2022-08-06T01:23:57;97930.31;;;19.71;66.08
55914;BME280;58179;48.776;9.124;2022-08-06T01:26:37;97926.81;;;19.71;64.37
55914;BME280;58179;48.776;9.124;2022-08-06T01:29:11;97924.13;;;19.71;63.67
55914;BME280;58179;48.776;9.124;2022-08-06T01:31:51;97929.22;;;19.73;64.24
55914;BME280;58179;48.776;9.124;2022-08-06T01:34:23;97927.84;;;19.75;63.89
55914;BME280;58179;48.776;9.124;2022-08-06T01:36:58;97925.34;;;19.79;63.80
55914;BME280;58179;48.776;9.124;2022-08-06T01:39:26;97923.97;;;19.81;63.59
55914;BME280;58179;48.776;9.124;2022-08-06T01:41:53;97917.22;;;19.84;62.40
55914;BME280;58179;48.776;9.124;2022-08-06T01:44:25;97922.88;;;19.82;61.31
55914;BME280;58179;48.776;9.124;2022-08-06T01:46:57;97924.47;;;19.83;60.32
55914;BME280;58179;48.776;9.124;2022-08-06T01:49:27;97928.34;;;19.77;58.36
55914;BME280;58179;48.776;9.124;2022-08-06T01:51:57;97929.72;;;19.75;57.99
55914;BME280;58179;48.776;9.124;2022-08-06T01:54:24;97936.19;;;19.74;58.34
55914;BME280;58179;48.776;9.124;2022-08-06T01:56:53;97934.41;;;19.69;56.74
55914;BME280;58179;48.776;9.124;2022-08-06T01:59:26;97935.78;;;19.66;57.33
55914;BME280;58179;48.776;9.124;2022-08-06T02:01:55;97937.97;;;19.64;58.14
55914;BME280;58179;48.776;9.124;2022-08-06T02:04:27;97937.66;;;19.66;57.94
55914;BME280;58179;48.776;9.124;2022-08-06T02:06:55;97931.00;;;19.63;57.85
55914;BME280;58179;48.776;9.124;2022-08-06T02:09:23;97927.03;;;19.61;56.53
55914;BME280;58179;48.776;9.124;2022-08-06T02:11:56;97923.53;;;19.60;57.47
55914;BME280;58179;48.776;9.124;2022-08-06T02:14:25;97925.44;;;19.60;57.12
55914;BME280;58179;48.776;9.124;2022-08-06T02:16:54;97932.97;;;19.58;57.43
55914;BME280;58179;48.776;9.124;2022-08-06T02:19:24;97926.00;;;19.57;57.64
55914;BME280;58179;48.776;9.124;2022-08-06T02:21:53;97936.25;;;19.55;56.98
55914;BME280;58179;48.776;9.124;2022-08-06T02:24:22;97947.88;;;19.50;56.30
55914;BME280;58179;48.776;9.124;2022-08-06T02:26:51;97932.94;;;19.44;56.19
55914;BME280;58179;48.776;9.124;2022-08-06T02:29:18;97939.97;;;19.40;57.15
55914;BME280;58179;48.776;9.124;2022-08-06T02:31:47;97934.91;;;19.39;57.19
55914;BME280;58179;48.776;9.124;2022-08-06T02:34:13;97930.91;;;19.36;56.99
55914;BME280;58179;48.776;9.124;2022-08-06T02:36:43;97935.28;;;19.32;58.01
55914;BME280;58179;48.776;9.124;2022-08-06T02:39:19;97932.38;;;19.28;57.21
55914;BME280;58179;48.776;9.124;2022-08-06T02:42:00;97938.31;;;19.25;57.75
55914;BME280;58179;48.776;9.124;2022-08-06T02:44:38;97930.06;;;19.22;57.77
55914;BME280;58179;48.776;9.124;2022-08-06T02:47:12;97934.72;;;19.16;58.22
55914;BME280;58179;48.776;9.124;2022-08-06T02:49:45;97948.44;;;19.15;58.03
55914;BME280;58179;48.776;9.124;2022-08-06T02:52:16;97947.34;;;19.16;58.27
55914;BME280;58179;48.776;9.124;2022-08-06T02:54:49;97941.47;;;19.14;59.03
55914;BME280;58179;48.776;9.124;2022-08-06T02:57:22;97948.16;;;19.16;58.62
55914;BME280;58179;48.776;9.124;2022-08-06T02:59:53;97951.94;;;19.15;58.53
55914;BME280;58179;48.776;9.124;2022-08-06T03:02:23;97945.47;;;19.16;58.95
55914;BME280;58179;48.776;9.124;2022-08-06T03:04:51;97941.19;;;19.15;58.13
55914;BME280;58179;48.776;9.124;2022-08-06T03:07:19;97943.06;;;19.15;57.60
55914;BME280;58179;48.776;9.124;2022-08-06T03:09:48;97942.03;;;19.11;57.86
55914;BME280;58179;48.776;9.124;2022-08-06T03:12:15;97945.03;;;19.09;58.43
55914;BME280;58179;48.776;9.124;2022-08-06T03:14:44;97943.13;;;19.10;58.38
55914;BME280;58179;48.776;9.124;2022-08-06T03:17:12;97949.81;;;19.12;58.66
55914;BME280;58179;48.776;9.124;2022-08-06T03:19:42;97940.97;;;19.12;58.33
55914;BME280;58179;48.776;9.124;2022-08-06T03:22:09;97943.94;;;19.10;58.41
55914;BME280;58179;48.776;9.124;2022-08-06T03:24:37;97953.09;;;19.09;57.74
55914;BME280;58179;48.776;9.124;2022-08-06T03:27:04;97951.50;;;19.08;58.12
55914;BME280;58179;48.776;9.124;2022-08-06T03:29:32;97955.03;;;19.04;57.63
55914;BME280;58179;48.776;9.124;2022-08-06T03:31:59;97955.03;;;19.04;57.71
55914;BME280;58179;48.776;9.124;2022-08-06T03:34:28;97959.41;;;19.00;57.79
55914;BME280;58179;48.776;9.124;2022-08-06T03:36:57;97965.56;;;19.00;58.44
55914;BME280;58179;48.776;9.124;2022-08-06T03:39:24;97971.22;;;18.99;58.72
55914;BME280;58179;48.776;9.124;2022-08-06T03:41:52;97975.78;;;18.98;58.23
55914;BME280;58179;48.776;9.124;2022-08-06T03:44:18;97977.66;;;18.98;58.61
55914;BME280;58179;48.776;9.124;2022-08-06T03:46:50;97972.09;;;18.94;58.20
55914;BME280;58179;48.776;9.124;2022-08-06T03:49:23;97967.03;;;18.92;58.48
55914;BME280;58179;48.776;9.124;2022-08-06T03:51:53;97976.97;;;18.92;58.63
55914;BME280;58179;48.776;9.124;2022-08-06T03:54:25;97986.88;;;18.91;58.40
55914;BME280;58179;48.776;9.124;2022-08-06T03:56:53;97978.03;;;18.91;58.05
55914;BME280;58179;48.776;9.124;2022-08-06T03:59:21;97974.03;;;18.88;58.41
55914;BME280;58179;48.776;9.124;2022-08-06T04:01:48;97980.22;;;18.89;58.67
55914;BME280;58179;48.776;9.124;2022-08-06T04:04:16;97982.09;;;18.88;58.83
55914;BME280;58179;48.776;9.124;2022-08-06T04:06:43;97992.81;;;18.88;58.89
55914;BME280;58179;48.776;9.124;2022-08-06T04:09:10;97992.03;;;18.88;58.08
55914;BME280;58179;48.776;9.124;2022-08-06T04:11:38;97984.28;;;18.86;58.39
55914;BME280;58179;48.776;9.124;2022-08-06T04:14:05;97988.06;;;18.85;58.45
55914;BME280;58179;48.776;9.124;2022-08-06T04:16:31;97984.06;;;18.83;58.44
55914;BME280;58179;48.776;9.124;2022-08-06T04:18:58;97990.22;;;18.83;58.16
55914;BME280;58179;48.776;9.124;2022-08-06T04:21:25;97989.41;;;18.83;58.73
55914;BME280;58179;48.776;9.124;2022-08-06T04:23:52;97999.34;;;18.82;58.70
55914;BME280;58179;48.776;9.124;2022-08-06T04:26:23;98004.44;;;18.84;59.01
55914;BME280;58179;48.776;9.124;2022-08-06T04:28:53;97997.47;;;18.83;58.80
55914;BME280;58179;48.776;9.124;2022-08-06T04:31:22;97997.75;;;18.81;58.73
55914;BME280;58179;48.776;9.124;2022-08-06T04:33:49;98002.31;;;18.81;58.73
55914;BME280;58179;48.776;9.124;2022-08-06T04:36:17;97999.63;;;18.81;58.87
55914;BME280;58179;48.776;9.124;2022-08-06T04:38:44;98001.22;;;18.82;59.11
55914;BME280;58179;48.776;9.124;2022-08-06T04:41:11;98007.13;;;18.84;59.10
55914;BME280;58179;48.776;9.124;2022-08-06T04:43:38;98016.25;;;18.83;57.80
55914;BME280;58179;48.776;9.124;2022-08-06T04:46:06;98013.03;;;18.81;58.79
55914;BME280;58179;48.776;9.124;2022-08-06T04:48:33;98009.56;;;18.80;59.28
55914;BME280;58179;48.776;9.124;2022-08-06T04:51:02;98017.31;;;18.82;59.21
55914;BME280;58179;48.776;9.124;2022-08-06T04:53:36;98017.31;;;18.82;59.56
55914;BME280;58179;48.776;9.124;2022-08-06T04:56:03;98021.59;;;18.83;59.31
55914;BME280;58179;48.776;9.124;2022-08-06T04:58:30;98017.31;;;18.82;59.51
55914;BME280;58179;48.776;9.124;2022-08-06T05:00:56;98024.28;;;18.83;59.66
55914;BME280;58179;48.776;9.124;2022-08-06T05:03:23;98025.59;;;18.85;59.37
55914;BME280;58179;48.776;9.124;2022-08-06T05:05:55;98021.84;;;18.86;59.48
55914;BME280;58179;48.776;9.124;2022-08-06T05:08:28;98027.50;;;18.85;59.54
55914;BME280;58179;48.776;9.124;2022-08-06T05:11:05;98042.19;;;18.87;59.70
55914;BME280;58179;48.776;9.124;2022-08-06T05:13:36;98046.00;;;18.86;59.55
55914;BME280;58179;48.776;9.124;2022-08-06T05:16:07;98037.13;;;18.86;59.51
55914;BME280;58179;48.776;9.124;2022-08-06T05:18:45;98048.94;;;18.85;59.72
55914;BME280;58179;48.776;9.124;2022-08-06T05:21:21;98054.31;;;18.85;59.51
55914;BME280;58179;48.776;9.124;2022-08-06T05:23:50;98050.09;;;18.79;59.45
55914;BME280;58179;48.776;9.124;2022-08-06T05:26:20;98048.78;;;18.76;59.89
55914;BME280;58179;48.776;9.124;2022-08-06T05:28:46;98042.91;;;18.74;60.06
55914;BME280;58179;48.776;9.124;2022-08-06T05:31:12;98046.38;;;18.75;59.64
55914;BME280;58179;48.776;9.124;2022-08-06T05:33:40;98052.03;;;18.73;59.38
55914;BME280;58179;48.776;9.124;2022-08-06T05:36:08;98051.53;;;18.71;59.58
55914;BME280;58179;48.776;9.124;2022-08-06T05:38:37;98058.47;;;18.72;60.10
55914;BME280;58179;48.776;9.124;2022-08-06T05:41:05;98065.16;;;18.75;60.40
55914;BME280;58179;48.776;9.124;2022-08-06T05:43:31;98066.19;;;18.79;60.51
55914;BME280;58179;48.776;9.124;2022-08-06T05:46:01;98065.31;;;18.83;60.26
55914;BME280;58179;48.776;9.124;2022-08-06T05:48:31;98066.13;;;18.84;60.68
55914;BME280;58179;48.776;9.124;2022-08-06T05:51:09;98065.84;;;18.85;60.23
55914;BME280;58179;48.776;9.124;2022-08-06T05:53:51;98065.84;;;18.85;60.61
55914;BME280;58179;48.776;9.124;2022-08-06T05:56:38;98059.09;;;18.88;60.75
55914;BME280;58179;48.776;9.124;2022-08-06T05:59:12;98071.13;;;18.90;60.88
55914;BME280;58179;48.776;9.124;2022-08-06T06:01:42;98066.06;;;18.89;60.26
55914;BME280;58179;48.776;9.124;2022-08-06T06:04:09;98075.19;;;18.88;60.28
55914;BME280;58179;48.776;9.124;2022-08-06T06:06:37;98073.81;;;18.90;60.37
55914;BME280;58179;48.776;9.124;2022-08-06T06:09:03;98077.50;;;18.94;60.71
55914;BME280;58179;48.776;9.124;2022-08-06T06:11:31;98081.78;;;18.95;60.57
55914;BME280;58179;48.776;9.124;2022-08-06T06:13:57;98085.78;;;18.98;60.78
55914;BME280;58179;48.776;9.124;2022-08-06T06:16:28;98083.91;;;18.99;60.72
55914;BME280;58179;48.776;9.124;2022-08-06T06:19:16;98083.63;;;19.00;60.65
55914;BME280;58179;48.776;9.124;2022-08-06T06:21:59;98092.97;;;19.03;60.57
55914;BME280;58179;48.776;9.124;2022-08-06T06:24:31;98090.00;;;19.04;60.74
55914;BME280;58179;48.776;9.124;2022-08-06T06:27:10;98091.31;;;19.07;60.87
55914;BME280;58179;48.776;9.124;2022-08-06T06:29:51;98093.41;;;19.10;60.58
55914;BME280;58179;48.776;9.124;2022-08-06T06:32:35;98089.88;;;19.14;61.29
55914;BME280;58179;48.776;9.124;2022-08-06T06:35:17;98100.03;;;19.17;61.27
55914;BME280;58179;48.776;9.124;2022-08-06T06:37:56;98101.34;;;19.20;60.78
55914;BME280;58179;48.776;9.124;2022-08-06T06:40:39;98106.44;;;19.21;60.56
55914;BME280;58179;48.776;9.124;2022-08-06T06:43:13;98106.16;;;19.23;60.57
55914;BME280;58179;48.776;9.124;2022-08-06T06:45:48;98110.13;;;19.25;60.27
55914;BME280;58179;48.776;9.124;2022-08-06T06:48:21;98105.53;;;19.26;60.40
55914;BME280;58179;48.776;9.124;2022-08-06T06:50:55;98113.56;;;19.31;60.47
55914;BME280;58179;48.776;9.124;2022-08-06T06:53:26;98110.56;;;19.32;59.69
55914;BME280;58179;48.776;9.124;2022-08-06T06:55:55;98117.47;;;19.39;59.87
55914;BME280;58179;48.776;9.124;2022-08-06T06:58:28;98114.94;;;19.47;59.87
55914;BME280;58179;48.776;9.124;2022-08-06T07:00:59;98105.44;;;19.55;59.83
55914;BME280;58179;48.776;9.124;2022-08-06T07:03:26;98122.78;;;19.62;59.86
55914;BME280;58179;48.776;9.124;2022-08-06T07:05:54;98117.06;;;19.69;59.69
55914;BME280;58179;48.776;9.124;2022-08-06T07:08:27;98107.59;;;19.71;58.80
55914;BME280;58179;48.776;9.124;2022-08-06T07:10:54;98116.19;;;19.74;58.29
55914;BME280;58179;48.776;9.124;2022-08-06T07:13:22;98119.84;;;19.78;58.51
55914;BME280;58179;48.776;9.124;2022-08-06T07:15:50;98116.88;;;19.79;58.03
55914;BME280;58179;48.776;9.124;2022-08-06T07:18:17;98120.28;;;19.85;58.07
55914;BME280;58179;48.776;9.124;2022-08-06T07:20:44;98122.81;;;19.95;58.49
55914;BME280;58179;48.776;9.124;2022-08-06T07:23:11;98130.03;;;19.99;58.18
55914;BME280;58179;48.776;9.124;2022-08-06T07:25:43;98119.75;;;20.01;57.81
55914;BME280;58179;48.776;9.124;2022-08-06T07:28:12;98127.34;;;19.99;57.44
55914;BME280;58179;48.776;9.124;2022-08-06T07:30:40;98122.81;;;19.95;57.40
55914;BME280;58179;48.776;9.124;2022-08-06T07:33:07;98124.81;;;19.89;57.59
55914;BME280;58179;48.776;9.124;2022-08-06T07:35:35;98126.78;;;19.84;57.67
55914;BME280;58179;48.776;9.124;2022-08-06T07:38:04;98131.91;;;19.80;58.03
55914;BME280;58179;48.776;9.124;2022-08-06T07:40:40;98138.38;;;19.79;58.17
55914;BME280;58179;48.776;9.124;2022-08-06T07:43:10;98133.22;;;19.83;58.31
55914;BME280;58179;48.776;9.124;2022-08-06T07:45:38;98136.41;;;19.85;58.27
55914;BME280;58179;48.776;9.124;2022-08-06T07:48:07;98133.38;;;19.91;58.33
55914;BME280;58179;48.776;9.124;2022-08-06T07:50:35;98134.88;;;19.97;57.97
55914;BME280;58179;48.776;9.124;2022-08-06T07:53:02;98122.38;;;20.06;57.69
55914;BME280;58179;48.776;9.124;2022-08-06T07:55:29;98127.38;;;20.13;57.71
55914;BME280;58179;48.776;9.124;2022-08-06T07:57:57;98135.56;;;20.22;57.39
55914;BME280;58179;48.776;9.124;2022-08-06T08:00:24;98144.09;;;20.24;56.97
55914;BME280;58179;48.776;9.124;2022-08-06T08:02:51;98127.69;;;20.25;56.50
55914;BME280;58179;48.776;9.124;2022-08-06T08:05:38;98130.88;;;20.27;56.30
55914;BME280;58179;48.776;9.124;2022-08-06T08:08:24;98123.34;;;20.29;55.72
55914;BME280;58179;48.776;9.124;2022-08-06T08:10:51;98118.97;;;20.33;55.66
55914;BME280;58179;48.776;9.124;2022-08-06T08:13:21;98118.41;;;20.36;55.77
55914;BME280;58179;48.776;9.124;2022-08-06T08:15:48;98117.50;;;20.41;55.89
55914;BME280;58179;48.776;9.124;2022-08-06T08:18:14;98113.53;;;20.52;55.63
55914;BME280;58179;48.776;9.124;2022-08-06T08:20:42;98109.44;;;20.68;55.64
55914;BME280;58179;48.776;9.124;2022-08-06T08:23:12;98109.94;;;20.84;55.07
55914;BME280;58179;48.776;9.124;2022-08-06T08:25:39;98113.94;;;21.00;54.61
55914;BME280;58179;48.776;9.124;2022-08-06T08:28:06;98102.03;;;21.15;53.54
55914;BME280;58179;48.776;9.124;2022-08-06T08:30:33;98109.91;;;21.39;53.83
55914;BME280;58179;48.776;9.124;2022-08-06T08:33:02;98111.03;;;21.60;53.43
55914;BME280;58179;48.776;9.124;2022-08-06T08:35:28;98110.69;;;21.75;53.05
55914;BME280;58179;48.776;9.124;2022-08-06T08:37:54;98116.38;;;21.74;52.12
55914;BME280;58179;48.776;9.124;2022-08-06T08:40:21;98116.69;;;21.72;52.17
55914;BME280;58179;48.776;9.124;2022-08-06T08:42:50;98123.91;;;21.63;52.19
55914;BME280;58179;48.776;9.124;2022-08-06T08:45:19;98112.84;;;21.51;52.07
55914;BME280;58179;48.776;9.124;2022-08-06T08:47:52;98123.97;;;21.36;51.91
55914;BME280;58179;48.776;9.124;2022-08-06T08:50:20;98121.97;;;21.28;52.26
55914;BME280;58179;48.776;9.124;2022-08-06T08:52:51;98124.91;;;21.17;52.62
55914;BME280;58179;48.776;9.124;2022-08-06T08:55:22;98124.78;;;21.09;52.95
55914;BME280;58179;48.776;9.124;2022-08-06T08:57:50;98129.50;;;21.03;52.87
55914;BME280;58179;48.776;9.124;2022-08-06T09:00:19;98126.50;;;20.91;52.58
55914;BME280;58179;48.776;9.124;2022-08-06T09:02:46;98128.50;;;20.85;53.27
55914;BME280;58179;48.776;9.124;2022-08-06T09:05:13;98132.56;;;20.83;53.30
55914;BME280;58179;48.776;9.124;2022-08-06T09:07:40;98121.00;;;20.82;53.13
55914;BME280;58179;48.776;9.124;2022-08-06T09:10:08;98128.19;;;20.87;53.54
55914;BME280;58179;48.776;9.124;2022-08-06T09:12:35;98138.34;;;20.90;53.44
55914;BME280;58179;48.776;9.124;2022-08-06T09:15:01;98131.56;;;20.93;53.30
55914;BME280;58179;48.776;9.124;2022-08-06T09:17:28;98132.97;;;20.90;52.75
55914;BME280;58179;48.776;9.124;2022-08-06T09:19:56;98137.34;;;20.86;52.83
55914;BME280;58179;48.776;9.124;2022-08-06T09:22:22;98140.63;;;20.83;52.82
55914;BME280;58179;48.776;9.124;2022-08-06T09:24:48;98140.44;;;20.79;53.03
55914;BME280;58179;48.776;9.124;2022-08-06T09:27:16;98153.41;;;20.77;53.16
55914;BME280;58179;48.776;9.124;2022-08-06T09:29:50;98151.00;;;20.76;52.99
55914;BME280;58179;48.776;9.124;2022-08-06T09:32:38;98145.63;;;20.76;53.26
55914;BME280;58179;48.776;9.124;2022-08-06T09:35:17;98141.53;;;20.78;53.12
55914;BME280;58179;48.776;9.124;2022-08-06T09:37:44;98148.94;;;20.86;52.94
55914;BME280;58179;48.776;9.124;2022-08-06T09:40:16;98145.03;;;20.93;52.71
55914;BME280;58179;48.776;9.124;2022-08-06T09:42:45;98147.91;;;20.82;50.74
55914;BME280;58179;48.776;9.124;2022-08-06T09:45:14;98149.44;;;20.89;51.91
55914;BME280;58179;48.776;9.124;2022-08-06T09:47:41;98146.34;;;20.95;52.74
55914;BME280;58179;48.776;9.124;2022-08-06T09:50:08;98146.22;;;21.00;52.85
55914;BME280;58179;48.776;9.124;2022-08-06T09:52:38;98145.94;;;21.02;52.13
55914;BME280;58179;48.776;9.124;2022-08-06T09:55:05;98154.19;;;21.05;52.32
55914;BME280;58179;48.776;9.124;2022-08-06T09:57:44;98156.41;;;21.03;51.24
55914;BME280;58179;48.776;9.124;2022-08-06T10:00:12;98145.03;;;21.06;51.13
55914;BME280;58179;48.776;9.124;2022-08-06T10:02:49;98151.59;;;21.14;51.00
55914;BME280;58179;48.776;9.124;2022-08-06T10:05:20;98143.13;;;21.20;50.87
55914;BME280;58179;48.776;9.124;2022-08-06T10:08:04;98148.91;;;21.28;50.38
55914;BME280;58179;48.776;9.124;2022-08-06T10:10:43;98150.72;;;21.32;50.05
55914;BME280;58179;48.776;9.124;2022-08-06T10:13:18;98149.63;;;21.33;50.41
55914;BME280;58179;48.776;9.124;2022-08-06T10:15:44;98148.53;;;21.34;50.37
55914;BME280;58179;48.776;9.124;2022-08-06T10:18:31;98158.81;;;21.32;49.97
55914;BME280;58179;48.776;9.124;2022-08-06T10:21:03;98159.09;;;21.31;50.46
55914;BME280;58179;48.776;9.124;2022-08-06T10:23:33;98154.00;;;21.29;50.68
55914;BME280;58179;48.776;9.124;2022-08-06T10:26:00;98163.38;;;21.32;50.87
55914;BME280;58179;48.776;9.124;2022-08-06T10:28:27;98144.91;;;21.39;50.82
55914;BME280;58179;48.776;9.124;2022-08-06T10:30:55;98141.97;;;21.62;50.39
55914;BME280;58179;48.776;9.124;2022-08-06T10:33:24;98143.91;;;21.84;48.69
55914;BME280;58179;48.776;9.124;2022-08-06T10:35:54;98143.56;;;21.99;48.63
55914;BME280;58179;48.776;9.124;2022-08-06T10:38:26;98146.31;;;22.08;47.72
55914;BME280;58179;48.776;9.124;2022-08-06T10:40:57;98136.41;;;22.17;47.55
55914;BME280;58179;48.776;9.124;2022-08-06T10:43:25;98139.47;;;22.24;47.40
55914;BME280;58179;48.776;9.124;2022-08-06T10:45:51;98144.28;;;22.36;47.83
55914;BME280;58179;48.776;9.124;2022-08-06T10:48:18;98135.06;;;22.68;46.78
55914;BME280;58179;48.776;9.124;2022-08-06T10:50:45;98133.97;;;23.00;45.90
55914;BME280;58179;48.776;9.124;2022-08-06T10:53:11;98136.41;;;23.36;44.96
55914;BME280;58179;48.776;9.124;2022-08-06T10:55:37;98141.38;;;23.68;43.85
55914;BME280;58179;48.776;9.124;2022-08-06T10:58:05;98128.50;;;24.00;43.28
55914;BME280;58179;48.776;9.124;2022-08-06T11:00:32;98130.06;;;24.09;41.60
55914;BME280;58179;48.776;9.124;2022-08-06T11:03:07;98132.31;;;24.07;42.23
55914;BME280;58179;48.776;9.124;2022-08-06T11:05:38;98132.78;;;24.01;42.72
55914;BME280;58179;48.776;9.124;2022-08-06T11:08:43;98125.97;;;23.69;40.29
55914;BME280;58179;48.776;9.124;2022-08-06T11:11:35;98128.81;;;23.55;41.93
55914;BME280;58179;48.776;9.124;2022-08-06T11:14:08;98123.53;;;23.41;42.79
55914;BME280;58179;48.776;9.124;2022-08-06T11:16:35;98121.94;;;23.32;42.93
55914;BME280;58179;48.776;9.124;2022-08-06T11:19:05;98124.63;;;23.32;43.93
55914;BME280;58179;48.776;9.124;2022-08-06T11:21:40;98120.81;;;23.33;44.20
55914;BME280;58179;48.776;9.124;2022-08-06T11:24:06;98122.72;;;23.32;44.06
55914;BME280;58179;48.776;9.124;2022-08-06T11:26:35;98113.03;;;23.23;43.30
55914;BME280;58179;48.776;9.124;2022-08-06T11:29:06;98109.19;;;23.24;43.46
55914;BME280;58179;48.776;9.124;2022-08-06T11:31:35;98111.78;;;23.29;43.89
55914;BME280;58179;48.776;9.124;2022-08-06T11:34:04;98107.94;;;23.38;44.05
55914;BME280;58179;48.776;9.124;2022-08-06T11:36:48;98110.19;;;23.36;42.48
55914;BME280;58179;48.776;9.124;2022-08-06T11:39:15;98099.84;;;23.47;43.10
55914;BME280;58179;48.776;9.124;2022-08-06T11:41:47;98098.94;;;23.51;41.99
55914;BME280;58179;48.776;9.124;2022-08-06T11:44:16;98096.22;;;23.69;42.33
55914;BME280;58179;48.776;9.124;2022-08-06T11:46:44;98091.94;;;23.76;42.23
55914;BME280;58179;48.776;9.124;2022-08-06T11:49:20;98090.97;;;23.89;42.77
55914;BME280;58179;48.776;9.124;2022-08-06T11:51:53;98099.09;;;23.89;41.52
55914;BME280;58179;48.776;9.124;2022-08-06T11:54:24;98096.03;;;24.00;42.10
55914;BME280;58179;48.776;9.124;2022-08-06T11:57:23;98088.09;;;23.86;39.67
55914;BME280;58179;48.776;9.124;2022-08-06T12:00:24;98090.81;;;23.86;41.01
55914;BME280;58179;48.776;9.124;2022-08-06T12:02:56;98091.13;;;23.84;41.76
55914;BME280;58179;48.776;9.124;2022-08-06T12:05:49;98091.91;;;23.85;41.87
55914;BME280;58179;48.776;9.124;2022-08-06T12:08:27;98085.22;;;23.91;42.15
55914;BME280;58179;48.776;9.124;2022-08-06T12:11:36;98076.78;;;24.10;41.72
55914;BME280;58179;48.776;9.124;2022-08-06T12:14:04;98081.19;;;24.40;41.37
55914;BME280;58179;48.776;9.124;2022-08-06T12:16:38;98083.28;;;24.73;41.77
55914;BME280;58179;48.776;9.124;2022-08-06T12:19:12;98074.97;;;25.07;41.17
55914;BME280;58179;48.776;9.124;2022-08-06T12:21:41;98081.78;;;25.34;39.83
55914;BME280;58179;48.776;9.124;2022-08-06T12:24:08;98076.22;;;25.60;39.40
55914;BME280;58179;48.776;9.124;2022-08-06T12:26:35;98080.22;;;25.74;38.99
55914;BME280;58179;48.776;9.124;2022-08-06T12:29:04;98081.56;;;25.68;37.95
55914;BME280;58179;48.776;9.124;2022-08-06T12:31:37;98073.91;;;25.70;37.46
55914;BME280;58179;48.776;9.124;2022-08-06T12:34:04;98067.94;;;25.77;37.97
55914;BME280;58179;48.776;9.124;2022-08-06T12:36:34;98058.47;;;25.83;38.24
55914;BME280;58179;48.776;9.124;2022-08-06T12:39:06;98060.59;;;25.77;38.23
55914;BME280;58179;48.776;9.124;2022-08-06T12:41:35;98061.28;;;25.87;38.08
55914;BME280;58179;48.776;9.124;2022-08-06T12:44:02;98057.34;;;25.84;37.28
55914;BME280;58179;48.776;9.124;2022-08-06T12:46:28;98049.13;;;25.93;36.84
55914;BME280;58179;48.776;9.124;2022-08-06T12:48:55;98058.03;;;25.93;37.37
55914;BME280;58179;48.776;9.124;2022-08-06T12:51:21;98048.66;;;25.91;37.25
55914;BME280;58179;48.776;9.124;2022-08-06T12:53:50;98044.44;;;25.81;36.93
55914;BME280;58179;48.776;9.124;2022-08-06T12:56:17;98040.88;;;25.68;37.53
55914;BME280;58179;48.776;9.124;2022-08-06T12:58:44;98040.53;;;25.49;37.30
55914;BME280;58179;48.776;9.124;2022-08-06T13:01:16;98033.56;;;25.48;36.90
55914;BME280;58179;48.776;9.124;2022-08-06T13:03:49;98037.63;;;25.75;37.54
55914;BME280;58179;48.776;9.124;2022-08-06T13:06:22;98029.25;;;26.13;37.66
55914;BME280;58179;48.776;9.124;2022-08-06T13:08:49;98031.34;;;26.28;36.45
55914;BME280;58179;48.776;9.124;2022-08-06T13:11:16;98019.13;;;26.46;35.78
55914;BME280;58179;48.776;9.124;2022-08-06T13:13:49;98028.19;;;26.75;35.81
55914;BME280;58179;48.776;9.124;2022-08-06T13:16:16;98020.72;;;26.84;35.31